Terminal Aerodrome Forecast
Issued by NWS Paducah, KY

Home | Current Version | Previous Version | Text Only | Print | Product List | Glossary Off
Versions: 1 2 3 4 5 6 7 8 9 10 11 12 13 14 15 16 17 18 19 20 21 22 23 24 25 26 27 28 29 30

568
FTUS43 KPAH 181123
TAFEVV
TAF
KEVV 181123Z 1812/1912 19013G23KT P6SM OVC028
     FM181500 20018G28KT P6SM VCSH BKN018
     FM181900 23018G30KT 5SM -SHRA VCTS BKN015CB
     FM182100 31021G35KT P6SM BKN025
     FM190300 30017G27KT P6SM SCT035
     FM190600 30012G22KT P6SM FEW150=

USA.gov is the U.S. government's official web portal to all federal, state and local government web resources and services.